Time;durP1;ratioP1;P1;durP2;ratioP2;P2;SDS_P1;SDS_P2;PMS_P1;PMS_P2;Temp;Humidity;BMP_temperature;BMP_pressure;BME280_temperature;BME280_humidity;BME280_pressure;Samples;Min_cycle;Max_cycle;Signal;HPM_P1;HPM_P2
2021/08/20 00:01:58;;;;;;;4.53;4.13;;;;;;;19.39;76.16;100388.97;4903505;29;20051;-81
2021/08/20 00:04:25;;;;;;;5.00;4.20;;;;;;;19.34;76.06;100386.69;4895629;29;20107;-81
2021/08/20 00:06:52;;;;;;;5.03;4.15;;;;;;;19.26;76.56;100381.94;4899435;29;20048;-81
2021/08/20 00:09:18;;;;;;;5.57;4.13;;;;;;;19.20;76.81;100382.44;4898310;29;20037;-81
2021/08/20 00:11:45;;;;;;;6.85;4.35;;;;;;;19.18;76.93;100387.13;4898075;29;20064;-81
2021/08/20 00:14:15;;;;;;;5.75;4.47;;;;;;;19.15;76.91;100390.03;4900433;29;20131;-81
2021/08/20 00:16:42;;;;;;;7.03;4.43;;;;;;;19.12;77.35;100384.06;4901247;29;20045;-81
2021/08/20 00:19:10;;;;;;;5.97;4.28;;;;;;;19.14;77.34;100385.66;4900416;29;20072;-82
2021/08/20 00:21:36;;;;;;;5.22;4.05;;;;;;;19.16;77.58;100388.22;4884255;29;20135;-81
2021/08/20 00:24:05;;;;;;;5.13;4.38;;;;;;;19.16;77.38;100381.00;4902916;29;20054;-81
2021/08/20 00:26:32;;;;;;;5.30;3.90;;;;;;;19.16;77.32;100381.00;4915693;29;20063;-81
2021/08/20 00:28:59;;;;;;;4.85;4.22;;;;;;;19.16;77.37;100391.75;4917958;29;20193;-80
2021/08/20 00:31:26;;;;;;;6.05;4.47;;;;;;;19.17;77.48;100382.72;4920702;29;20029;-80
2021/08/20 00:33:53;;;;;;;5.68;4.70;;;;;;;19.18;77.63;100387.13;4917800;29;20036;-81
2021/08/20 00:36:19;;;;;;;6.70;4.43;;;;;;;19.20;77.71;100385.13;4911963;29;20071;-81
2021/08/20 00:38:46;;;;;;;4.75;4.25;;;;;;;19.21;77.57;100386.84;4904528;29;20148;-81
2021/08/20 00:41:13;;;;;;;5.78;4.53;;;;;;;19.17;77.41;100374.66;4904016;29;20063;-81
2021/08/20 00:43:44;;;;;;;5.97;4.90;;;;;;;19.17;77.62;100384.56;4902268;29;20056;-81
2021/08/20 00:46:10;;;;;;;5.43;4.88;;;;;;;19.17;77.52;100379.19;4907958;29;20046;-81
2021/08/20 00:48:39;;;;;;;5.13;4.63;;;;;;;19.15;77.55;100373.09;4917301;29;20051;-81
2021/08/20 00:51:10;;;;;;;6.60;4.70;;;;;;;19.15;78.03;100378.47;4910055;29;20055;-81
2021/08/20 00:53:37;;;;;;;5.38;4.00;;;;;;;19.13;77.83;100375.03;4900050;29;20079;-81
2021/08/20 00:56:04;;;;;;;5.53;4.32;;;;;;;19.11;78.22;100375.16;4885983;29;20064;-81
2021/08/20 00:58:32;;;;;;;5.50;4.50;;;;;;;19.14;78.23;100379.44;4897644;29;20055;-81
2021/08/20 01:00:59;;;;;;;5.78;4.50;;;;;;;19.15;78.09;100378.47;4899182;29;20049;-81
2021/08/20 01:03:32;;;;;;;5.13;4.63;;;;;;;19.14;77.99;100374.91;4901162;29;20055;-81
2021/08/20 01:06:03;;;;;;;5.63;4.38;;;;;;;19.13;78.39;100378.59;4900529;29;20068;-81
2021/08/20 01:08:31;;;;;;;5.45;4.75;;;;;;;19.14;78.31;100374.06;4900643;29;20043;-81
2021/08/20 01:11:00;;;;;;;5.60;4.30;;;;;;;19.12;77.87;100378.69;4898025;29;20043;-82
2021/08/20 01:13:31;;;;;;;7.55;4.70;;;;;;;19.11;78.10;100372.47;4904177;29;20135;-81
2021/08/20 01:15:59;;;;;;;6.10;4.45;;;;;;;19.11;78.28;100377.84;4905350;29;20770;-82
2021/08/20 01:18:29;;;;;;;5.68;4.75;;;;;;;19.10;78.22;100378.81;4903681;29;20046;-81
2021/08/20 01:20:58;;;;;;;5.47;4.30;;;;;;;19.06;78.53;100377.38;4918655;29;20073;-81
2021/08/20 01:23:26;;;;;;;5.70;4.50;;;;;;;19.03;78.72;100374.97;4917780;29;20084;-80
2021/08/20 01:25:54;;;;;;;7.10;4.93;;;;;;;18.99;79.07;100369.97;4917115;29;20048;-80
2021/08/20 01:28:24;;;;;;;6.00;4.82;;;;;;;18.93;79.42;100369.47;4899289;29;20067;-81
2021/08/20 01:31:02;;;;;;;6.80;5.20;;;;;;;18.89;79.81;100367.16;4900650;29;20049;-81
2021/08/20 01:33:30;;;;;;;6.45;4.93;;;;;;;18.83;80.35;100375.72;4898542;29;20126;-80
2021/08/20 01:35:57;;;;;;;5.35;4.47;;;;;;;18.78;80.64;100378.78;4895759;29;20041;-81
2021/08/20 01:38:25;;;;;;;5.53;4.68;;;;;;;18.74;80.83;100373.78;4897397;29;20048;-80
2021/08/20 01:40:53;;;;;;;5.88;4.78;;;;;;;18.72;80.93;100375.75;4896064;29;20602;-81
2021/08/20 01:43:23;;;;;;;5.75;4.57;;;;;;;18.66;81.07;100376.25;4896691;29;20052;-81
2021/08/20 01:45:51;;;;;;;6.10;4.63;;;;;;;18.68;81.19;100368.94;4903446;29;20155;-80
2021/08/20 01:48:18;;;;;;;6.90;4.20;;;;;;;18.67;81.50;100378.81;4888150;29;20044;-81
2021/08/20 01:50:44;;;;;;;6.18;4.53;;;;;;;18.68;81.12;100380.50;4885870;29;20491;-80
2021/08/20 01:53:12;;;;;;;6.55;4.18;;;;;;;18.69;80.70;100376.00;4900207;29;20129;-80
2021/08/20 01:55:41;;;;;;;6.15;4.63;;;;;;;18.68;80.21;100377.84;4898757;29;20041;-80
2021/08/20 01:58:08;;;;;;;5.20;4.20;;;;;;;18.69;80.00;100370.63;4890989;29;20460;-81
2021/08/20 02:00:34;;;;;;;5.70;4.07;;;;;;;18.69;80.15;100376.00;4896754;29;20052;-81
2021/08/20 02:03:02;;;;;;;6.07;3.78;;;;;;;18.69;79.72;100376.84;4895616;29;20048;-81
2021/08/20 02:05:29;;;;;;;5.85;4.15;;;;;;;18.67;79.34;100370.75;4889286;29;20040;-80
2021/08/20 02:07:55;;;;;;;4.72;3.42;;;;;;;18.68;79.56;100376.97;4900740;29;20051;-80
2021/08/20 02:10:22;;;;;;;4.80;4.30;;;;;;;18.69;79.05;100386.72;4890807;29;20104;-81
2021/08/20 02:12:49;;;;;;;5.15;3.80;;;;;;;18.65;78.75;100375.41;4880626;29;20054;-81
2021/08/20 02:15:16;;;;;;;4.97;3.65;;;;;;;18.65;78.57;100379.91;4899392;29;20117;-81
2021/08/20 02:17:43;;;;;;;4.35;3.50;;;;;;;18.62;78.18;100378.31;4899310;29;20059;-81
2021/08/20 02:20:10;;;;;;;4.82;3.75;;;;;;;18.64;78.49;100375.50;4902457;29;20052;-80
2021/08/20 02:22:37;;;;;;;4.72;3.58;;;;;;;18.67;78.43;100378.81;4904988;29;20068;-81
2021/08/20 02:25:04;;;;;;;4.07;3.63;;;;;;;18.64;77.69;100373.69;4899301;29;20169;-80
2021/08/20 02:27:31;;;;;;;5.70;3.60;;;;;;;18.60;77.53;100371.38;4905900;29;20048;-80
2021/08/20 02:29:58;;;;;;;4.57;3.63;;;;;;;18.59;77.61;100378.56;4892853;29;20056;-80
2021/08/20 02:32:24;;;;;;;4.47;3.47;;;;;;;18.57;77.64;100372.47;4894211;29;20047;-80
2021/08/20 02:34:51;;;;;;;4.30;3.60;;;;;;;18.53;77.50;100374.53;4895639;29;20692;-80
2021/08/20 02:37:17;;;;;;;4.45;3.95;;;;;;;18.54;78.02;100380.75;4878585;29;20037;-80
2021/08/20 02:39:44;;;;;;;6.68;3.83;;;;;;;18.58;77.14;100380.38;4900335;29;20045;-81
2021/08/20 02:42:11;;;;;;;4.07;3.67;;;;;;;18.56;77.54;100379.66;4893689;29;20482;-80
2021/08/20 02:44:37;;;;;;;5.97;4.47;;;;;;;18.55;77.88;100383.31;4897277;29;20057;-81
2021/08/20 02:47:07;;;;;;;5.53;4.10;;;;;;;18.51;78.36;100389.03;4896630;29;20056;-80
2021/08/20 02:49:34;;;;;;;5.50;3.70;;;;;;;18.47;78.57;100372.31;4879151;29;20044;-81
2021/08/20 02:52:00;;;;;;;4.47;4.00;;;;;;;18.43;78.94;100380.72;4894531;29;20048;-80
2021/08/20 02:54:27;;;;;;;5.45;4.43;;;;;;;18.39;79.35;100377.47;4895959;29;20047;-80
2021/08/20 02:56:56;;;;;;;8.23;4.88;;;;;;;18.35;80.17;100380.50;4895435;29;20100;-81
2021/08/20 02:59:22;;;;;;;5.07;4.57;;;;;;;18.31;80.97;100377.19;4887422;29;20045;-81
2021/08/20 03:01:49;;;;;;;6.57;5.15;;;;;;;18.27;81.70;100375.72;4894314;29;20127;-81
2021/08/20 03:04:17;;;;;;;6.50;4.57;;;;;;;18.25;82.15;100376.84;4897080;29;20041;-81
2021/08/20 03:06:43;;;;;;;6.13;4.88;;;;;;;18.23;82.48;100374.28;4900294;29;20052;-80
2021/08/20 03:09:11;;;;;;;6.63;5.20;;;;;;;18.23;82.96;100376.97;4898231;29;20052;-80
2021/08/20 03:11:38;;;;;;;6.30;5.35;;;;;;;18.21;83.30;100379.78;4893109;29;20040;-80
2021/08/20 03:14:06;;;;;;;6.32;5.68;;;;;;;18.23;83.33;100380.50;4887412;29;20040;-80
2021/08/20 03:16:33;;;;;;;5.68;5.05;;;;;;;18.23;83.31;100375.16;4892078;29;20067;-80
2021/08/20 03:19:00;;;;;;;7.68;5.20;;;;;;;18.25;83.20;100371.50;4892935;29;20048;-80
2021/08/20 03:21:27;;;;;;;8.23;6.43;;;;;;;18.24;83.12;100373.31;4896603;29;20053;-80
2021/08/20 03:23:54;;;;;;;7.70;5.47;;;;;;;18.22;83.61;100368.06;4896892;29;20061;-80
2021/08/20 03:26:20;;;;;;;5.15;4.63;;;;;;;18.22;83.36;100364.53;4896004;29;20056;-80
2021/08/20 03:28:48;;;;;;;5.35;4.85;;;;;;;18.20;83.28;100371.84;4895686;29;20062;-80
2021/08/20 03:31:15;;;;;;;7.30;5.22;;;;;;;18.16;82.93;100365.00;4904169;29;20056;-80
2021/08/20 03:33:41;;;;;;;7.95;5.15;;;;;;;18.12;82.91;100360.88;4905977;29;20052;-81
2021/08/20 03:36:09;;;;;;;6.53;5.57;;;;;;;18.10;83.25;100360.97;4901229;29;20140;-80
2021/08/20 03:38:36;;;;;;;7.80;6.15;;;;;;;18.08;83.47;100362.09;4915477;29;20047;-80
2021/08/20 03:41:02;;;;;;;6.65;5.68;;;;;;;18.05;83.68;100365.00;4901446;29;20087;-79
2021/08/20 03:43:29;;;;;;;7.75;5.35;;;;;;;18.01;84.13;100369.75;4916042;29;20127;-80
2021/08/20 03:45:56;;;;;;;7.25;6.00;;;;;;;17.97;84.02;100364.75;4912565;29;20052;-80
2021/08/20 03:48:22;;;;;;;8.32;5.60;;;;;;;17.93;84.47;100361.47;4914896;29;20049;-79
2021/08/20 03:50:49;;;;;;;7.07;5.80;;;;;;;17.90;84.70;100366.22;4898194;29;20092;-80
2021/08/20 03:53:16;;;;;;;8.02;5.70;;;;;;;17.87;84.34;100373.50;4910832;29;20109;-80
2021/08/20 03:55:42;;;;;;;7.28;5.43;;;;;;;17.82;84.65;100367.66;4909919;29;20040;-79
2021/08/20 03:58:09;;;;;;;8.45;5.47;;;;;;;17.79;84.48;100370.56;4904885;29;20060;-80
2021/08/20 04:00:38;;;;;;;6.60;5.45;;;;;;;17.75;84.67;100368.25;4910826;29;20075;-80
2021/08/20 04:03:05;;;;;;;6.25;5.22;;;;;;;17.71;84.76;100369.47;4896327;29;20741;-80
2021/08/20 04:05:32;;;;;;;7.03;5.63;;;;;;;17.66;84.93;100383.19;4899327;29;20049;-81
2021/08/20 04:08:00;;;;;;;7.40;5.35;;;;;;;17.64;84.84;100378.91;4900534;29;20047;-81
2021/08/20 04:10:27;;;;;;;6.75;5.20;;;;;;;17.60;84.54;100380.97;4903182;29;20085;-81
2021/08/20 04:12:53;;;;;;;6.25;5.05;;;;;;;17.53;84.20;100371.69;4903190;29;20060;-81
2021/08/20 04:15:21;;;;;;;5.72;5.13;;;;;;;17.56;83.96;100387.53;4899827;29;20552;-81
2021/08/20 04:17:48;;;;;;;5.53;4.82;;;;;;;17.53;84.04;100390.41;4905637;29;20121;-80
2021/08/20 04:20:14;;;;;;;5.40;4.90;;;;;;;17.50;84.08;100393.31;4906134;29;20055;-80
2021/08/20 04:23:05;;;;;;;5.55;4.68;;;;;;;17.48;84.17;100393.44;4908055;29;20054;-80
2021/08/20 04:25:33;;;;;;;8.05;5.40;;;;;;;17.46;84.23;100403.44;4909481;29;20296;-81
2021/08/20 04:28:23;;;;;;;5.85;4.75;;;;;;;17.43;84.19;100402.81;4916768;29;20086;-79
2021/08/20 04:30:50;;;;;;;7.82;4.82;;;;;;;17.39;83.93;100404.84;4915196;29;20051;-81
2021/08/20 04:33:16;;;;;;;7.13;5.00;;;;;;;17.39;84.14;100409.34;4912985;29;22358;-81
2021/08/20 04:35:43;;;;;;;5.63;4.95;;;;;;;17.35;83.70;100411.41;4895621;29;20175;-81
2021/08/20 04:38:10;;;;;;;5.45;4.22;;;;;;;17.25;84.01;100401.50;4907157;29;20065;-80
2021/08/20 04:40:41;;;;;;;6.18;5.00;;;;;;;17.29;84.01;100422.59;4910950;29;20048;-80
2021/08/20 04:43:09;;;;;;;8.25;5.15;;;;;;;17.23;84.21;100408.78;4911971;29;20045;-80
2021/08/20 04:45:36;;;;;;;6.38;5.15;;;;;;;17.22;84.06;100413.28;4929614;29;20065;-79
2021/08/20 04:48:02;;;;;;;5.38;4.32;;;;;;;17.21;84.23;100414.25;4924402;29;20112;-79
2021/08/20 04:50:30;;;;;;;5.35;4.75;;;;;;;17.24;84.12;100423.88;4908250;29;20131;-79
2021/08/20 04:52:59;;;;;;;7.53;4.93;;;;;;;17.25;83.56;100429.13;4905701;29;20052;-79
2021/08/20 04:55:25;;;;;;;6.22;4.68;;;;;;;17.26;83.42;100432.66;4916627;29;20055;-80
2021/08/20 04:57:53;;;;;;;5.72;4.80;;;;;;;17.26;83.05;100433.50;4917330;29;20040;-78
2021/08/20 05:00:19;;;;;;;6.03;4.90;;;;;;;17.28;82.77;100433.41;4920613;29;20107;-79
2021/08/20 05:02:46;;;;;;;8.80;4.97;;;;;;;17.29;82.75;100433.28;4918501;29;20044;-79
2021/08/20 05:05:14;;;;;;;6.38;4.65;;;;;;;17.32;82.94;100434.84;4918499;29;20080;-80
2021/08/20 05:07:42;;;;;;;6.45;5.40;;;;;;;17.37;82.49;100433.56;4916001;29;20116;-80
2021/08/20 05:10:10;;;;;;;6.15;4.32;;;;;;;17.42;82.27;100433.22;4884810;29;20049;-80
2021/08/20 05:12:37;;;;;;;6.82;4.82;;;;;;;17.47;81.86;100441.78;4898729;29;20456;-79
2021/08/20 05:15:07;;;;;;;6.40;5.18;;;;;;;17.52;81.54;100442.25;4900363;29;20052;-79
2021/08/20 05:17:34;;;;;;;6.18;5.10;;;;;;;17.57;80.49;100447.28;4900962;29;20063;-80
2021/08/20 05:20:01;;;;;;;6.45;4.72;;;;;;;17.65;79.92;100447.56;4889845;29;20040;-79
2021/08/20 05:22:55;;;;;;;6.15;4.78;;;;;;;17.69;79.27;100444.56;4909072;29;20067;-79
2021/08/20 05:25:23;;;;;;;4.55;4.10;;;;;;;17.76;78.55;100444.97;4910817;29;20117;-80
2021/08/20 05:27:51;;;;;;;7.28;4.80;;;;;;;17.79;77.53;100445.56;4905922;29;20080;-79
2021/08/20 05:30:42;;;;;;;6.15;4.38;;;;;;;17.82;78.20;100456.03;4899823;29;20071;-79
2021/08/20 05:33:09;;;;;;;6.55;4.68;;;;;;;17.87;77.58;100450.34;4898679;29;20057;-80
2021/08/20 05:35:35;;;;;;;5.32;4.63;;;;;;;17.90;77.87;100460.84;4886337;29;20050;-79
2021/08/20 05:38:04;;;;;;;7.05;4.45;;;;;;;17.92;77.49;100461.56;4902281;29;20054;-81
2021/08/20 05:40:30;;;;;;;5.70;4.60;;;;;;;17.91;77.25;100459.88;4896608;29;20055;-80
2021/08/20 05:43:03;;;;;;;6.97;4.25;;;;;;;17.89;77.13;100464.47;4901202;29;20048;-81
2021/08/20 05:45:36;;;;;;;5.18;4.18;;;;;;;17.92;77.66;100476.78;4911742;29;20502;-79
2021/08/20 05:48:07;;;;;;;4.72;4.22;;;;;;;17.88;77.22;100465.44;4881128;29;20099;-80
2021/08/20 05:50:37;;;;;;;4.80;4.30;;;;;;;17.87;77.51;100475.31;4901234;29;20052;-80
2021/08/20 05:53:03;;;;;;;6.00;4.47;;;;;;;17.83;77.42;100479.19;4906127;29;20055;-80
2021/08/20 05:55:34;;;;;;;6.05;4.68;;;;;;;17.79;77.13;100475.03;4902614;29;20059;-80
2021/08/20 05:58:03;;;;;;;6.68;4.28;;;;;;;17.82;77.19;100476.63;4885576;29;20040;-81
2021/08/20 06:00:30;;;;;;;5.43;4.70;;;;;;;17.83;77.04;100473.81;4899253;29;20056;-80
2021/08/20 06:02:57;;;;;;;8.10;4.95;;;;;;;17.86;76.84;100476.28;4901922;29;20053;-80
2021/08/20 06:05:26;;;;;;;5.50;4.50;;;;;;;17.95;75.82;100471.19;4889349;29;20488;-81
2021/08/20 06:07:53;;;;;;;5.40;4.38;;;;;;;17.98;74.79;100470.94;4901794;29;20139;-81
2021/08/20 06:10:20;;;;;;;6.18;4.40;;;;;;;17.96;74.53;100468.38;4902434;29;20485;-82
2021/08/20 06:12:47;;;;;;;4.60;4.13;;;;;;;18.03;74.83;100479.50;4901545;29;20093;-81
2021/08/20 06:15:15;;;;;;;5.15;4.30;;;;;;;18.10;73.89;100476.22;4891044;29;20044;-80
2021/08/20 06:17:42;;;;;;;5.22;4.35;;;;;;;18.17;73.31;100482.81;4892012;29;20351;-81
2021/08/20 06:20:10;;;;;;;6.03;4.18;;;;;;;18.22;72.69;100479.78;4900437;29;20041;-81
2021/08/20 06:22:36;;;;;;;5.70;4.10;;;;;;;18.36;72.71;100476.03;4898822;29;20488;-81
2021/08/20 06:25:03;;;;;;;5.10;4.05;;;;;;;18.56;73.39;100478.03;4900015;29;20059;-80
2021/08/20 06:27:31;;;;;;;4.28;3.55;;;;;;;18.75;72.00;100486.31;4897248;29;20047;-81
2021/08/20 06:29:58;;;;;;;4.07;3.67;;;;;;;19.07;71.46;100488.25;4896845;29;20059;-80
2021/08/20 06:32:24;;;;;;;5.13;3.10;;;;;;;19.45;69.69;100490.53;4896405;29;20048;-81
2021/08/20 06:34:51;;;;;;;4.57;3.55;;;;;;;19.86;68.17;100490.63;4902240;29;20041;-81
2021/08/20 06:37:17;;;;;;;5.40;3.30;;;;;;;20.15;66.37;100490.00;4890489;29;20477;-81
2021/08/20 06:39:44;;;;;;;6.57;3.55;;;;;;;20.33;63.70;100488.44;4901219;29;20099;-81
2021/08/20 06:42:11;;;;;;;4.05;3.35;;;;;;;20.51;62.69;100494.09;4896725;29;20062;-82
2021/08/20 06:44:37;;;;;;;4.45;3.17;;;;;;;20.45;62.42;100498.19;4903324;29;20048;-82
2021/08/20 06:47:04;;;;;;;3.97;3.17;;;;;;;20.27;62.05;100503.28;4900535;29;20093;-82
2021/08/20 06:49:31;;;;;;;4.97;3.20;;;;;;;20.15;64.13;100508.81;4906264;29;20040;-82
2021/08/20 06:51:59;;;;;;;3.92;3.35;;;;;;;20.42;63.44;100490.38;4903958;29;20041;-82
2021/08/20 06:54:26;;;;;;;5.38;3.85;;;;;;;20.85;63.27;100494.69;4904347;29;20063;-79
2021/08/20 06:56:52;;;;;;;4.13;3.30;;;;;;;21.30;61.69;100490.63;4911956;29;20058;-80
2021/08/20 06:59:19;;;;;;;4.75;2.90;;;;;;;21.63;58.01;100485.84;4896190;29;20514;-81
2021/08/20 07:01:45;;;;;;;5.47;2.95;;;;;;;21.78;59.19;100492.53;4913185;29;20112;-80
2021/08/20 07:04:12;;;;;;;4.35;2.67;;;;;;;21.98;57.89;100498.78;4912448;29;20048;-80
2021/08/20 07:06:39;;;;;;;5.25;3.40;;;;;;;22.16;56.74;100491.69;4888993;29;20059;-80
2021/08/20 07:09:06;;;;;;;8.85;2.80;;;;;;;22.21;57.28;100486.69;4900965;29;20120;-80
2021/08/20 07:11:32;;;;;;;4.32;2.70;;;;;;;22.28;55.80;100490.53;4905007;29;20095;-80
2021/08/20 07:14:01;;;;;;;4.00;2.63;;;;;;;22.38;57.05;100494.06;4897165;29;20048;-81
2021/08/20 07:16:27;;;;;;;2.65;2.30;;;;;;;22.64;55.18;100497.00;4910093;29;20159;-81
2021/08/20 07:18:54;;;;;;;3.53;3.15;;;;;;;22.82;54.37;100490.84;4906857;29;20048;-81
2021/08/20 07:21:21;;;;;;;3.15;2.50;;;;;;;23.06;53.31;100491.16;4900660;29;20112;-81
2021/08/20 07:23:48;;;;;;;5.00;2.88;;;;;;;23.27;52.37;100489.06;4913124;29;20044;-81
2021/08/20 07:26:15;;;;;;;3.33;2.50;;;;;;;23.26;51.24;100489.22;4898479;29;20048;-81
2021/08/20 07:28:42;;;;;;;3.03;2.50;;;;;;;23.07;51.96;100492.84;4905391;29;20124;-81
2021/08/20 07:31:08;;;;;;;2.88;2.42;;;;;;;22.78;52.84;100495.69;4902329;29;20051;-81
2021/08/20 07:33:35;;;;;;;3.92;2.67;;;;;;;22.86;53.87;100489.53;4899015;29;20123;-81
2021/08/20 07:36:03;;;;;;;2.85;2.40;;;;;;;23.06;52.86;100491.16;4894431;29;20051;-81
2021/08/20 07:38:31;;;;;;;3.15;2.85;;;;;;;23.08;52.00;100499.97;4908492;29;20051;-81
2021/08/20 07:40:57;;;;;;;3.72;2.53;;;;;;;23.16;51.70;100501.91;4903768;29;20108;-81
2021/08/20 07:43:24;;;;;;;5.30;2.85;;;;;;;23.26;52.32;100498.16;4891597;29;20097;-80
2021/08/20 07:45:52;;;;;;;3.25;2.13;;;;;;;23.19;51.52;100507.00;4911823;29;20053;-81
2021/08/20 07:48:18;;;;;;;2.50;2.30;;;;;;;23.14;52.38;100514.72;4898573;29;20045;-81
2021/08/20 07:50:47;;;;;;;4.10;2.60;;;;;;;23.07;51.69;100503.66;4899409;29;20053;-81
2021/08/20 07:53:17;;;;;;;4.15;2.50;;;;;;;23.07;52.30;100511.78;4914124;29;20092;-81
2021/08/20 07:55:48;;;;;;;4.70;2.63;;;;;;;23.07;53.40;100507.22;4888185;29;20060;-81
2021/08/20 07:58:14;;;;;;;4.43;2.55;;;;;;;23.05;52.58;100505.66;4899146;29;20045;-81
2021/08/20 08:00:41;;;;;;;3.47;2.60;;;;;;;23.08;51.94;100508.91;4898217;29;20044;-80
2021/08/20 08:03:08;;;;;;;5.88;2.42;;;;;;;23.07;51.88;100511.78;4898959;29;20164;-81
2021/08/20 08:05:35;;;;;;;2.40;2.20;;;;;;;22.93;52.33;100515.81;4903329;29;20048;-81
2021/08/20 08:08:02;;;;;;;2.63;2.40;;;;;;;22.79;51.80;100521.69;4899898;29;20116;-80
2021/08/20 08:10:28;;;;;;;2.33;2.13;;;;;;;22.70;50.86;100511.72;4904595;29;20060;-80
2021/08/20 08:12:55;;;;;;;3.53;2.35;;;;;;;22.49;51.54;100509.25;4902635;29;20055;-80
2021/08/20 08:15:24;;;;;;;2.50;2.08;;;;;;;22.40;51.33;100512.81;4907143;29;20072;-80
2021/08/20 08:17:51;;;;;;;5.05;2.28;;;;;;;22.32;52.24;100512.69;4912149;29;20072;-80
2021/08/20 08:20:18;;;;;;;2.90;2.00;;;;;;;22.34;51.95;100519.66;4913745;29;20104;-80
2021/08/20 08:22:45;;;;;;;2.53;2.10;;;;;;;22.37;53.12;100522.03;4922975;29;20068;-80
2021/08/20 08:25:13;;;;;;;2.42;2.10;;;;;;;22.52;52.34;100529.66;4914569;29;20614;-80
2021/08/20 08:28:22;;;;;;;3.40;2.40;;;;;;;22.58;51.55;100524.56;4924032;29;20071;-80
2021/08/20 08:30:49;;;;;;;3.72;2.28;;;;;;;22.75;51.96;100523.78;4922150;29;20040;-79
2021/08/20 08:33:17;;;;;;;3.03;2.20;;;;;;;22.88;51.31;100533.44;4909692;29;20449;-80
2021/08/20 08:36:00;;;;;;;2.63;2.10;;;;;;;22.89;52.05;100532.44;4917385;29;20457;-81
2021/08/20 08:38:28;;;;;;;3.08;2.40;;;;;;;22.86;51.63;100538.13;4905231;29;20060;-80
2021/08/20 08:40:57;;;;;;;3.85;2.38;;;;;;;22.86;51.88;100538.13;4913548;29;20035;-80
2021/08/20 08:43:23;;;;;;;4.47;2.63;;;;;;;23.01;51.38;100544.75;4918834;29;20068;-80
2021/08/20 08:45:50;;;;;;;3.30;2.35;;;;;;;23.14;50.64;100547.16;4912020;29;20044;-80
2021/08/20 08:48:17;;;;;;;2.75;2.05;;;;;;;23.23;50.69;100551.66;4897679;29;20065;-81
2021/08/20 08:50:47;;;;;;;3.80;2.00;;;;;;;23.48;50.57;100539.25;4911022;29;20124;-80
2021/08/20 08:53:14;;;;;;;3.22;2.10;;;;;;;23.61;49.22;100542.50;4915198;29;20048;-79
2021/08/20 08:55:56;;;;;;;3.13;1.90;;;;;;;23.68;48.15;100538.19;4904172;29;20056;-80
2021/08/20 08:58:23;;;;;;;2.40;2.10;;;;;;;23.61;48.37;100543.34;4906991;29;20045;-81
2021/08/20 09:00:50;;;;;;;3.95;2.22;;;;;;;23.41;48.95;100548.00;4905520;29;20639;-80
2021/08/20 09:03:25;;;;;;;2.38;1.90;;;;;;;23.27;49.32;100542.25;4909949;29;20403;-80
2021/08/20 09:05:53;;;;;;;4.25;2.25;;;;;;;23.16;49.85;100547.81;4910342;29;20055;-81
2021/08/20 09:08:23;;;;;;;3.15;2.03;;;;;;;23.08;49.92;100541.34;4917311;29;20064;-81
2021/08/20 09:10:52;;;;;;;5.10;2.60;;;;;;;22.93;50.68;100544.66;4900807;29;20072;-81
2021/08/20 09:13:20;;;;;;;2.60;2.40;;;;;;;22.80;50.75;100541.44;4911417;29;20056;-81
2021/08/20 09:16:05;;;;;;;3.38;2.22;;;;;;;22.73;50.45;100541.13;4905956;29;20052;-81
2021/08/20 09:18:32;;;;;;;3.53;2.33;;;;;;;22.66;49.88;100543.59;4900404;29;20168;-80
2021/08/20 09:20:59;;;;;;;3.90;2.60;;;;;;;22.64;50.25;100550.97;4893429;29;20044;-81
2021/08/20 09:23:27;;;;;;;2.78;2.47;;;;;;;22.57;50.78;100549.84;4911575;29;20079;-81
2021/08/20 09:25:54;;;;;;;4.50;2.35;;;;;;;22.59;49.97;100542.44;4909733;29;20056;-81
2021/08/20 09:28:29;;;;;;;4.07;2.53;;;;;;;22.64;49.93;100544.72;4890728;29;20056;-81
2021/08/20 09:30:59;;;;;;;4.22;2.70;;;;;;;22.57;50.46;100543.59;4910657;29;20119;-82
2021/08/20 09:33:35;;;;;;;3.38;2.40;;;;;;;22.46;49.68;100541.91;4898855;29;20076;-80
2021/08/20 09:36:08;;;;;;;2.80;2.50;;;;;;;22.33;50.49;100541.38;4902082;29;20047;-81
2021/08/20 09:39:01;;;;;;;3.28;2.40;;;;;;;22.33;51.54;100546.75;4912105;29;20116;-82
2021/08/20 09:41:34;;;;;;;3.03;2.35;;;;;;;22.32;51.65;100542.38;4907978;29;20047;-79
2021/08/20 09:44:07;;;;;;;3.85;2.67;;;;;;;22.28;51.74;100540.94;4896599;29;20445;-81
2021/08/20 09:46:44;;;;;;;4.15;2.50;;;;;;;22.31;51.65;100543.34;4907370;29;20052;-82
2021/08/20 09:49:14;;;;;;;3.38;2.67;;;;;;;22.31;51.97;100546.91;4898773;29;20057;-82
2021/08/20 09:51:49;;;;;;;7.75;2.70;;;;;;;22.35;51.10;100539.38;4904473;29;20055;-81
2021/08/20 09:54:18;;;;;;;3.33;2.47;;;;;;;22.38;51.93;100549.88;4904542;29;20040;-80
2021/08/20 09:56:58;;;;;;;4.72;2.90;;;;;;;22.46;51.26;100544.63;4905045;29;20044;-80
2021/08/20 09:59:30;;;;;;;3.63;2.80;;;;;;;22.51;51.67;100545.00;4911748;29;20052;-80
2021/08/20 10:02:00;;;;;;;3.38;2.80;;;;;;;22.50;51.63;100542.47;4905744;29;20104;-80
2021/08/20 10:04:29;;;;;;;3.38;3.08;;;;;;;22.50;51.70;100540.63;4900392;29;20116;-80
2021/08/20 10:06:58;;;;;;;3.92;2.90;;;;;;;22.53;51.55;100539.47;4902299;29;20052;-82
2021/08/20 10:09:28;;;;;;;4.32;2.60;;;;;;;22.58;51.52;100543.44;4904237;29;20055;-81
2021/08/20 10:11:56;;;;;;;5.60;3.38;;;;;;;22.61;50.85;100540.47;4914445;29;20079;-80
2021/08/20 10:14:25;;;;;;;3.45;2.97;;;;;;;22.55;50.60;100538.34;4889723;29;20046;-80
2021/08/20 10:16:51;;;;;;;4.03;2.88;;;;;;;22.26;51.63;100532.13;4903193;29;20088;-81
2021/08/20 10:19:19;;;;;;;3.53;2.83;;;;;;;22.22;51.84;100531.56;4884446;29;20063;-81
2021/08/20 10:21:46;;;;;;;3.95;3.00;;;;;;;22.24;52.02;100531.41;4904411;29;20052;-81
2021/08/20 10:24:13;;;;;;;4.28;2.72;;;;;;;22.36;51.95;100528.41;4900194;29;20468;-81
2021/08/20 10:26:54;;;;;;;3.33;3.03;;;;;;;22.44;51.55;100525.00;4894545;29;20053;-82
2021/08/20 10:29:26;;;;;;;5.22;2.80;;;;;;;22.42;51.59;100529.69;4905229;29;20132;-81
2021/08/20 10:31:54;;;;;;;3.70;2.65;;;;;;;22.57;52.33;100524.69;4898100;29;20434;-82
2021/08/20 10:34:30;;;;;;;3.78;2.72;;;;;;;22.86;51.11;100520.09;4903557;29;20508;-82
2021/08/20 10:37:11;;;;;;;3.80;3.00;;;;;;;22.88;50.20;100519.94;4909670;29;20056;-82
2021/08/20 10:39:41;;;;;;;3.83;3.00;;;;;;;22.84;51.65;100532.03;4896946;29;20052;-80
2021/08/20 10:42:34;;;;;;;4.18;3.13;;;;;;;22.78;50.88;100524.53;4922059;29;20040;-81
2021/08/20 10:45:34;;;;;;;4.90;3.05;;;;;;;22.66;50.98;100526.53;4922661;29;20081;-80
2021/08/20 10:48:15;;;;;;;3.42;2.63;;;;;;;22.66;51.55;100522.00;4921410;29;20121;-81
2021/08/20 10:50:43;;;;;;;3.22;2.70;;;;;;;22.69;51.41;100524.38;4923804;29;20084;-81
2021/08/20 10:53:47;;;;;;;4.93;2.90;;;;;;;22.67;50.77;100523.66;4911101;29;20083;-81
2021/08/20 10:56:30;;;;;;;6.20;2.85;;;;;;;22.70;51.88;100520.69;4911351;29;20388;-82
2021/08/20 10:58:57;;;;;;;3.22;2.92;;;;;;;22.79;51.14;100526.25;4912610;29;20104;-81
2021/08/20 11:01:23;;;;;;;3.22;2.92;;;;;;;22.80;50.72;100527.94;4921169;29;20051;-81
2021/08/20 11:03:53;;;;;;;3.45;3.10;;;;;;;22.80;50.50;100527.94;4905976;29;20045;-81
2021/08/20 11:06:56;;;;;;;3.88;3.40;;;;;;;23.07;50.74;100519.88;4917217;29;20064;-82
2021/08/20 11:09:31;;;;;;;4.82;3.15;;;;;;;23.29;49.63;100524.88;4854742;29;20046;-80
2021/08/20 11:11:59;;;;;;;3.38;3.08;;;;;;;23.53;49.60;100527.03;4909648;29;20056;-80
2021/08/20 11:14:32;;;;;;;4.93;2.72;;;;;;;23.67;49.49;100517.56;4911741;29;20048;-81
2021/08/20 11:16:59;;;;;;;3.90;2.80;;;;;;;23.86;47.09;100520.13;4920650;29;20048;-81
2021/08/20 11:19:46;;;;;;;3.22;2.67;;;;;;;24.07;47.28;100519.81;4917233;29;20108;-81
2021/08/20 11:22:21;;;;;;;5.00;3.42;;;;;;;24.21;46.50;100523.81;4903068;29;20045;-81
2021/08/20 11:25:15;;;;;;;4.10;3.25;;;;;;;24.32;46.63;100510.91;4906471;29;20063;-81
2021/08/20 11:27:58;;;;;;;4.13;2.85;;;;;;;24.60;46.23;100518.88;4901705;29;20139;-81
2021/08/20 11:30:29;;;;;;;4.88;3.15;;;;;;;24.77;45.68;100515.28;4906537;29;20052;-82
2021/08/20 11:33:17;;;;;;;4.82;3.10;;;;;;;24.99;45.01;100522.88;4902871;29;20527;-81
2021/08/20 11:35:51;;;;;;;4.65;3.80;;;;;;;25.13;44.81;100518.72;4902363;29;20493;-81